createdAt,value
2023-05-31T00:00:52.993Z,99296.36
2023-05-31T00:03:20.115Z,99296.98
2023-05-31T00:05:46.943Z,99300.67
2023-05-31T00:08:13.750Z,99302.95
2023-05-31T00:10:40.376Z,99301.50
2023-05-31T00:13:07.081Z,99304.64
2023-05-31T00:15:33.739Z,99302.70
2023-05-31T00:18:00.814Z,99300.65
2023-05-31T00:20:27.661Z,99303.12
2023-05-31T00:22:54.395Z,99303.30
2023-05-31T00:25:21.289Z,99305.20
2023-05-31T00:27:48.065Z,99302.56
2023-05-31T00:30:15.661Z,99300.91
2023-05-31T00:32:42.459Z,99300.17
2023-05-31T00:35:09.241Z,99299.62
2023-05-31T00:37:38.037Z,99303.31
2023-05-31T00:40:08.480Z,99305.98
2023-05-31T00:42:35.560Z,99301.39
2023-05-31T00:45:04.513Z,99306.18
2023-05-31T00:47:31.693Z,99305.15
2023-05-31T00:49:59.120Z,99307.98
2023-05-31T00:52:26.793Z,99314.95
2023-05-31T00:54:53.828Z,99309.13
2023-05-31T00:57:21.285Z,99307.74
2023-05-31T00:59:48.160Z,99311.42
2023-05-31T01:02:18.041Z,99310.80
2023-05-31T01:04:45.169Z,99310.08
2023-05-31T01:07:12.235Z,99310.01
2023-05-31T01:09:43.275Z,99312.46
2023-05-31T01:12:16.812Z,99313.27
2023-05-31T01:15:08.608Z,99312.71
2023-05-31T01:18:09.991Z,99310.09
2023-05-31T01:20:41.168Z,99311.45
2023-05-31T01:23:21.966Z,99313.79
2023-05-31T01:26:15.738Z,99314.84
2023-05-31T01:28:42.778Z,99314.88
2023-05-31T01:31:10.218Z,99317.09
2023-05-31T01:33:38.243Z,99320.16
2023-05-31T01:36:05.249Z,99321.53
2023-05-31T01:38:32.729Z,99327.23
2023-05-31T01:40:59.739Z,99328.21
2023-05-31T01:43:26.805Z,99329.30
2023-05-31T01:45:54.616Z,99329.20
2023-05-31T01:48:21.869Z,99330.37
2023-05-31T01:50:49.001Z,99328.86
2023-05-31T01:53:15.847Z,99331.91
2023-05-31T01:55:43.931Z,99328.35
2023-05-31T01:58:11.418Z,99330.61
2023-05-31T02:00:39.211Z,99337.89
2023-05-31T02:03:06.401Z,99337.52
2023-05-31T02:05:33.934Z,99338.25
2023-05-31T02:08:01.184Z,99340.42
2023-05-31T02:10:28.480Z,99346.87
2023-05-31T02:12:55.552Z,99349.95
2023-05-31T02:15:23.650Z,99344.73
2023-05-31T02:17:51.843Z,99346.99
2023-05-31T02:20:18.963Z,99352.56
2023-05-31T02:22:45.929Z,99355.90
2023-05-31T02:25:14.000Z,99357.02
2023-05-31T02:27:41.342Z,99351.66
2023-05-31T02:30:08.823Z,99347.77
2023-05-31T02:32:37.743Z,99351.86
2023-05-31T02:35:05.355Z,99349.53
2023-05-31T02:37:33.286Z,99351.05
2023-05-31T02:40:00.117Z,99365.04
2023-05-31T02:42:26.798Z,99366.02
2023-05-31T02:44:53.586Z,99368.69
2023-05-31T02:47:20.650Z,99369.22
2023-05-31T02:49:47.717Z,99371.19
2023-05-31T02:52:14.656Z,99375.91
2023-05-31T02:55:08.308Z,99383.41
2023-05-31T02:57:43.688Z,99382.67
2023-05-31T03:00:11.766Z,99387.33
2023-05-31T03:02:40.371Z,99389.59
2023-05-31T03:05:29.597Z,99386.13
2023-05-31T03:07:56.561Z,99386.89
2023-05-31T03:10:23.292Z,99385.50
2023-05-31T03:12:51.050Z,99384.11
2023-05-31T03:15:17.970Z,99382.56
2023-05-31T03:17:45.156Z,99382.52
2023-05-31T03:20:12.130Z,99382.55
2023-05-31T03:22:40.190Z,99387.35
2023-05-31T03:25:09.009Z,99379.88
2023-05-31T03:27:35.946Z,99388.41
2023-05-31T03:30:03.539Z,99388.75
2023-05-31T03:32:32.313Z,99389.59
2023-05-31T03:35:00.265Z,99388.73
2023-05-31T03:37:27.166Z,99400.02
2023-05-31T03:40:02.844Z,99400.22
2023-05-31T03:42:32.936Z,99400.93
2023-05-31T03:44:59.867Z,99407.94
2023-05-31T03:47:29.431Z,99409.33
2023-05-31T03:49:57.047Z,99410.80
2023-05-31T03:52:23.752Z,99411.80
2023-05-31T03:54:50.699Z,99419.25
2023-05-31T03:57:17.444Z,99419.91
2023-05-31T03:59:44.464Z,99421.83
2023-05-31T04:02:12.536Z,99419.55
2023-05-31T04:04:39.441Z,99426.42
2023-05-31T04:07:06.509Z,99426.57
2023-05-31T04:09:33.352Z,99429.31
2023-05-31T04:12:00.859Z,99436.86
2023-05-31T04:14:27.957Z,99439.31
2023-05-31T04:16:55.264Z,99436.60
2023-05-31T04:19:22.377Z,99442.63
2023-05-31T04:21:49.067Z,99444.76
2023-05-31T04:24:15.748Z,99447.15
2023-05-31T04:26:42.526Z,99449.82
2023-05-31T04:29:09.733Z,99454.30
2023-05-31T04:31:50.505Z,99458.25
2023-05-31T04:34:21.120Z,99456.09
2023-05-31T04:36:50.852Z,99458.61
2023-05-31T04:39:22.461Z,99459.13
2023-05-31T04:41:50.244Z,99463.02
2023-05-31T04:44:19.440Z,99467.83
2023-05-31T04:46:47.075Z,99470.41
2023-05-31T04:49:14.625Z,99468.79
2023-05-31T04:51:41.667Z,99474.03
2023-05-31T04:54:08.935Z,99476.65
2023-05-31T04:56:35.680Z,99471.70
2023-05-31T04:59:02.714Z,99474.74
2023-05-31T05:01:29.746Z,99479.17
2023-05-31T05:04:02.072Z,99476.48
2023-05-31T05:06:29.682Z,99484.43
2023-05-31T05:08:57.763Z,99488.02
2023-05-31T05:11:25.843Z,99484.55
2023-05-31T05:13:54.245Z,99481.13
2023-05-31T05:16:22.757Z,99484.35
2023-05-31T05:18:50.539Z,99482.98
2023-05-31T05:21:18.431Z,99481.86
2023-05-31T05:23:47.633Z,99487.79
2023-05-31T05:26:14.454Z,99486.25
2023-05-31T05:28:41.212Z,99484.77
2023-05-31T05:31:08.363Z,99485.66
2023-05-31T05:33:38.868Z,99486.05
2023-05-31T05:36:06.294Z,99485.00
2023-05-31T05:38:34.654Z,99484.76
2023-05-31T05:41:02.263Z,99485.83
2023-05-31T05:43:31.348Z,99488.30
2023-05-31T05:46:05.746Z,99489.70
2023-05-31T05:48:33.004Z,99488.53
2023-05-31T05:51:00.744Z,99487.90
2023-05-31T05:53:28.922Z,99485.48
2023-05-31T05:55:55.991Z,99488.54
2023-05-31T05:58:31.798Z,99490.74
2023-05-31T06:01:27.632Z,99486.11
2023-05-31T06:03:56.057Z,99490.29
2023-05-31T06:06:23.848Z,99489.31
2023-05-31T06:08:50.610Z,99488.79
2023-05-31T06:11:19.036Z,99493.98
2023-05-31T06:13:46.256Z,99491.08
2023-05-31T06:16:14.508Z,99497.25
2023-05-31T06:18:41.665Z,99496.40
2023-05-31T06:21:08.830Z,99495.91
2023-05-31T06:23:35.819Z,99499.80
2023-05-31T06:26:03.943Z,99498.02
2023-05-31T06:28:36.904Z,99502.64
2023-05-31T06:31:05.543Z,99503.17
2023-05-31T06:33:34.009Z,99503.27
2023-05-31T06:36:00.864Z,99499.73
2023-05-31T06:38:28.141Z,99505.05
2023-05-31T06:40:55.644Z,99504.34
2023-05-31T06:43:22.452Z,99506.14
2023-05-31T06:46:21.428Z,99505.40
2023-05-31T06:49:12.494Z,99510.27
2023-05-31T06:51:46.066Z,99516.85
2023-05-31T06:54:35.123Z,99513.48
2023-05-31T06:57:08.799Z,99507.20
2023-05-31T06:59:35.540Z,99505.58
2023-05-31T07:02:02.878Z,99507.55
2023-05-31T07:04:29.986Z,99505.83
2023-05-31T07:06:57.730Z,99504.02
2023-05-31T07:09:24.936Z,99504.39
2023-05-31T07:11:55.015Z,99502.73
2023-05-31T07:14:23.787Z,99502.69
2023-05-31T07:16:50.857Z,99507.83
2023-05-31T07:19:17.988Z,99499.98
2023-05-31T07:21:44.961Z,99503.13
2023-05-31T07:24:12.093Z,99497.48
2023-05-31T07:26:39.177Z,99498.10
2023-05-31T07:29:06.751Z,99498.69
2023-05-31T07:31:33.970Z,99498.24
2023-05-31T07:34:00.899Z,99502.23
2023-05-31T07:36:27.880Z,99505.96
2023-05-31T07:38:54.796Z,99506.96
2023-05-31T07:41:21.972Z,99503.69
2023-05-31T07:43:49.209Z,99509.98
2023-05-31T07:46:16.326Z,99510.02
2023-05-31T07:48:46.388Z,99515.62
2023-05-31T07:51:13.701Z,99515.85
2023-05-31T07:53:41.464Z,99515.55
2023-05-31T07:56:09.024Z,99517.02
2023-05-31T07:58:35.865Z,99518.09
2023-05-31T08:01:03.415Z,99520.42
2023-05-31T08:03:32.141Z,99522.10
2023-05-31T08:05:59.152Z,99518.22
2023-05-31T08:08:26.827Z,99519.35
2023-05-31T08:10:54.069Z,99520.73
2023-05-31T08:13:24.391Z,99520.30
2023-05-31T08:15:52.870Z,99526.59
2023-05-31T08:18:19.914Z,99528.58
2023-05-31T08:20:47.520Z,99529.03
2023-05-31T08:23:21.585Z,99528.45
2023-05-31T08:25:48.645Z,99529.11
2023-05-31T08:28:15.578Z,99522.48
2023-05-31T08:30:44.837Z,99525.41
2023-05-31T08:33:13.064Z,99524.52
2023-05-31T08:35:41.432Z,99520.88
2023-05-31T08:38:08.321Z,99520.98
2023-05-31T08:40:36.448Z,99522.37
2023-05-31T08:43:08.203Z,99520.16
2023-05-31T08:45:36.069Z,99520.85
2023-05-31T08:48:23.599Z,99520.86
2023-05-31T08:50:54.163Z,99523.08
2023-05-31T08:53:23.477Z,99524.87
2023-05-31T08:55:51.088Z,99524.65
2023-05-31T08:58:18.681Z,99519.35
2023-05-31T09:00:46.920Z,99520.31
2023-05-31T09:03:13.768Z,99524.22
2023-05-31T09:05:42.147Z,99523.74
2023-05-31T09:08:09.187Z,99522.29
2023-05-31T09:10:36.247Z,99522.54
2023-05-31T09:13:03.916Z,99525.02
2023-05-31T09:15:30.942Z,99528.45
2023-05-31T09:17:58.236Z,99525.27
2023-05-31T09:20:34.916Z,99526.00
2023-05-31T09:23:05.600Z,99527.04
2023-05-31T09:25:49.366Z,99527.56
2023-05-31T09:28:18.350Z,99525.30
2023-05-31T09:30:45.385Z,99524.95
2023-05-31T09:33:13.610Z,99530.08
2023-05-31T09:35:56.717Z,99528.59
2023-05-31T09:38:32.628Z,99522.32
2023-05-31T09:41:19.828Z,99521.29
2023-05-31T09:43:48.028Z,99522.52
2023-05-31T09:46:20.795Z,99517.64
2023-05-31T09:49:06.795Z,99518.85
2023-05-31T09:51:34.486Z,99513.60
2023-05-31T09:54:07.666Z,99513.70
2023-05-31T09:56:39.064Z,99508.28
2023-05-31T09:59:06.147Z,99504.32
2023-05-31T10:01:35.523Z,99503.44
2023-05-31T10:04:05.083Z,99492.40
2023-05-31T10:06:35.894Z,99498.91
2023-05-31T10:09:03.760Z,99500.90
2023-05-31T10:11:37.222Z,99501.59
2023-05-31T10:14:15.492Z,99503.98
2023-05-31T10:16:51.210Z,99503.20
2023-05-31T10:19:24.642Z,99503.57
2023-05-31T10:21:51.326Z,99502.98
2023-05-31T10:24:22.626Z,99503.13
2023-05-31T10:27:18.260Z,99502.20
2023-05-31T10:29:56.669Z,99502.98
2023-05-31T10:32:27.623Z,99501.55
2023-05-31T10:34:57.742Z,99500.77
2023-05-31T10:37:25.034Z,99500.91
2023-05-31T10:40:08.473Z,99499.26
2023-05-31T10:42:57.316Z,99496.22
2023-05-31T10:45:30.980Z,99496.56
2023-05-31T10:48:21.757Z,99492.78
2023-05-31T10:50:53.693Z,99492.05
2023-05-31T10:53:20.742Z,99493.45
2023-05-31T10:55:48.042Z,99497.30
2023-05-31T10:58:39.204Z,99491.88
2023-05-31T11:01:07.064Z,99493.29
2023-05-31T11:03:40.404Z,99494.42
2023-05-31T11:06:09.896Z,99494.02
2023-05-31T11:08:37.033Z,99495.14
2023-05-31T11:11:32.283Z,99489.91
2023-05-31T11:14:07.184Z,99481.74
2023-05-31T11:16:59.228Z,99481.27
2023-05-31T11:19:29.429Z,99492.52
2023-05-31T11:21:59.659Z,99494.06
2023-05-31T11:24:27.322Z,99493.92
2023-05-31T11:27:03.799Z,99492.92
2023-05-31T11:29:48.772Z,99493.80
2023-05-31T11:32:18.843Z,99492.90
2023-05-31T11:34:54.478Z,99490.31
2023-05-31T11:37:24.814Z,99493.15
2023-05-31T11:39:55.011Z,99490.77
2023-05-31T11:42:22.196Z,99488.20
2023-05-31T11:44:50.354Z,99487.82
2023-05-31T11:47:21.538Z,99484.59
2023-05-31T11:49:48.589Z,99481.77
2023-05-31T11:52:16.482Z,99479.08
2023-05-31T11:54:45.959Z,99477.68
2023-05-31T11:57:13.475Z,99481.40
2023-05-31T11:59:41.847Z,99479.75
2023-05-31T12:02:09.156Z,99480.89
2023-05-31T12:04:41.724Z,99471.45
2023-05-31T12:07:13.286Z,99467.17
2023-05-31T12:09:41.052Z,99469.66
2023-05-31T12:12:08.050Z,99471.30
2023-05-31T12:14:35.934Z,99469.13
2023-05-31T12:17:06.442Z,99469.91
2023-05-31T12:19:33.481Z,99466.48
2023-05-31T12:22:02.240Z,99460.50
2023-05-31T12:24:30.045Z,99462.92
2023-05-31T12:26:57.516Z,99457.01
2023-05-31T12:29:31.293Z,99459.90
2023-05-31T12:32:05.967Z,99460.21
2023-05-31T12:34:37.214Z,99454.44
2023-05-31T12:37:09.609Z,99456.04
2023-05-31T12:39:37.117Z,99455.55
2023-05-31T12:42:06.246Z,99455.10
2023-05-31T12:44:34.256Z,99453.89
2023-05-31T12:47:02.254Z,99460.85
2023-05-31T12:49:30.855Z,99459.69
2023-05-31T12:52:02.183Z,99460.89
2023-05-31T12:54:39.333Z,99457.96
2023-05-31T12:57:09.149Z,99456.54
2023-05-31T12:59:36.524Z,99454.83
2023-05-31T13:02:04.549Z,99460.02
2023-05-31T13:04:31.508Z,99458.61
2023-05-31T13:06:58.202Z,99456.23
2023-05-31T13:09:25.305Z,99455.02
2023-05-31T13:11:52.064Z,99452.98
2023-05-31T13:14:25.228Z,99451.17
2023-05-31T13:16:53.347Z,99442.84
2023-05-31T13:19:20.354Z,99439.95
2023-05-31T13:21:47.016Z,99440.92
2023-05-31T13:24:14.535Z,99439.63
2023-05-31T13:26:41.580Z,99432.58
2023-05-31T13:29:08.348Z,99424.63
2023-05-31T13:31:35.654Z,99430.15
2023-05-31T13:34:02.544Z,99430.15
2023-05-31T13:36:29.523Z,99431.31
2023-05-31T13:38:56.352Z,99429.17
2023-05-31T13:41:23.147Z,99427.86
2023-05-31T13:43:50.450Z,99429.63
2023-05-31T13:46:18.363Z,99432.77
2023-05-31T13:48:45.082Z,99425.46
2023-05-31T13:51:16.267Z,99425.38
2023-05-31T13:53:43.054Z,99423.40
2023-05-31T13:56:11.328Z,99419.80
2023-05-31T13:58:38.185Z,99416.53
2023-05-31T14:01:07.844Z,99413.83
2023-05-31T14:03:35.980Z,99419.06
2023-05-31T14:06:03.381Z,99419.82
2023-05-31T14:08:31.159Z,99425.05
2023-05-31T14:10:58.540Z,99423.99
2023-05-31T14:13:26.125Z,99422.73
2023-05-31T14:15:53.021Z,99423.75
2023-05-31T14:18:19.759Z,99422.08
2023-05-31T14:20:47.685Z,99421.73
2023-05-31T14:23:14.629Z,99416.33
2023-05-31T14:25:41.393Z,99418.80
2023-05-31T14:28:08.089Z,99418.21
2023-05-31T14:30:35.211Z,99417.52
2023-05-31T14:33:03.586Z,99415.39
2023-05-31T14:35:30.981Z,99413.70
2023-05-31T14:38:00.130Z,99413.00
2023-05-31T14:40:46.446Z,99407.20
2023-05-31T14:43:14.519Z,99409.45
2023-05-31T14:45:41.348Z,99412.80
2023-05-31T14:48:08.198Z,99409.77
2023-05-31T14:50:35.859Z,99409.81
2023-05-31T14:53:02.778Z,99410.80
2023-05-31T14:55:29.885Z,99409.63
2023-05-31T14:57:56.873Z,99405.35
2023-05-31T15:00:23.514Z,99407.20
2023-05-31T15:02:50.770Z,99407.91
2023-05-31T15:05:17.776Z,99410.07
2023-05-31T15:07:44.577Z,99407.91
2023-05-31T15:10:12.372Z,99407.65
2023-05-31T15:12:39.486Z,99406.38
2023-05-31T15:15:06.815Z,99407.33
2023-05-31T15:17:34.180Z,99413.27
2023-05-31T15:20:02.546Z,99414.54
2023-05-31T15:22:30.107Z,99414.41
2023-05-31T15:24:56.784Z,99416.50
2023-05-31T15:27:23.729Z,99413.77
2023-05-31T15:29:50.359Z,99412.79
2023-05-31T15:32:16.968Z,99413.05
2023-05-31T15:34:43.590Z,99412.05
2023-05-31T15:37:11.160Z,99410.94
2023-05-31T15:39:38.780Z,99412.10
2023-05-31T15:42:06.191Z,99415.30
2023-05-31T15:44:33.090Z,99414.17
2023-05-31T15:47:00.155Z,99413.84
2023-05-31T15:49:27.028Z,99420.02
2023-05-31T15:51:54.020Z,99416.66
2023-05-31T15:54:20.776Z,99417.94
2023-05-31T15:56:47.720Z,99417.56
2023-05-31T15:59:14.381Z,99420.15
2023-05-31T16:01:41.293Z,99421.17
2023-05-31T16:04:08.181Z,99419.76
2023-05-31T16:06:36.000Z,99424.00
2023-05-31T16:09:02.860Z,99422.88
2023-05-31T16:11:31.646Z,99420.58
2023-05-31T16:13:59.086Z,99419.70
2023-05-31T16:16:26.190Z,99417.52
2023-05-31T16:18:53.055Z,99422.77
2023-05-31T16:21:20.373Z,99424.27
2023-05-31T16:23:47.535Z,99425.46
2023-05-31T16:26:14.310Z,99425.41
2023-05-31T16:28:41.157Z,99423.96
2023-05-31T16:31:14.033Z,99423.63
2023-05-31T16:33:41.839Z,99424.15
2023-05-31T16:36:09.383Z,99428.08
2023-05-31T16:38:37.543Z,99424.86
2023-05-31T16:41:04.439Z,99429.42
2023-05-31T16:43:31.207Z,99429.30
2023-05-31T16:45:58.929Z,99429.44
2023-05-31T16:48:25.874Z,99431.08
2023-05-31T16:50:52.539Z,99430.20
2023-05-31T16:53:21.489Z,99428.20
2023-05-31T16:55:48.747Z,99426.88
2023-05-31T16:58:17.520Z,99433.57
2023-05-31T17:00:45.507Z,99435.21
2023-05-31T17:03:13.400Z,99431.70
2023-05-31T17:05:43.271Z,99431.96
2023-05-31T17:08:12.278Z,99431.94
2023-05-31T17:10:39.873Z,99436.84
2023-05-31T17:13:09.519Z,99435.67
2023-05-31T17:15:37.277Z,99437.18
2023-05-31T17:18:05.051Z,99438.77
2023-05-31T17:20:31.984Z,99440.84
2023-05-31T17:22:58.691Z,99438.76
2023-05-31T17:25:26.862Z,99445.13
2023-05-31T17:27:54.392Z,99443.02
2023-05-31T17:30:26.363Z,99440.82
2023-05-31T17:32:54.284Z,99439.96
2023-05-31T17:35:21.939Z,99443.71
2023-05-31T17:37:48.738Z,99440.48
2023-05-31T17:40:18.334Z,99442.95
2023-05-31T17:42:46.568Z,99442.13
2023-05-31T17:45:13.549Z,99442.92
2023-05-31T17:47:40.643Z,99443.25
2023-05-31T17:50:12.111Z,99442.48
2023-05-31T17:52:39.738Z,99441.92
2023-05-31T17:55:07.729Z,99446.94
2023-05-31T17:57:35.425Z,99447.32
2023-05-31T18:00:02.602Z,99447.86
2023-05-31T18:02:36.682Z,99447.70
2023-05-31T18:05:03.691Z,99452.52
2023-05-31T18:07:32.009Z,99452.13
2023-05-31T18:09:58.866Z,99453.02
2023-05-31T18:12:25.687Z,99455.52
2023-05-31T18:14:52.681Z,99457.79
2023-05-31T18:17:21.707Z,99459.05
2023-05-31T18:19:48.457Z,99461.80
2023-05-31T18:22:15.207Z,99464.84
2023-05-31T18:24:42.210Z,99460.91
2023-05-31T18:27:19.865Z,99462.27
2023-05-31T18:29:48.061Z,99464.04
2023-05-31T18:32:15.634Z,99464.31
2023-05-31T18:34:42.604Z,99471.04
2023-05-31T18:37:10.235Z,99465.88
2023-05-31T18:39:37.810Z,99472.20
2023-05-31T18:42:07.287Z,99472.04
2023-05-31T18:44:34.066Z,99474.53
2023-05-31T18:47:00.904Z,99472.42
2023-05-31T18:49:28.249Z,99472.57
2023-05-31T18:51:55.073Z,99473.14
2023-05-31T18:54:21.814Z,99472.39
2023-05-31T18:56:48.728Z,99470.36
2023-05-31T18:59:15.686Z,99472.15
2023-05-31T19:01:43.013Z,99472.05
2023-05-31T19:04:10.651Z,99470.11
2023-05-31T19:06:38.026Z,99468.10
2023-05-31T19:09:05.224Z,99474.15
2023-05-31T19:11:32.619Z,99474.85
2023-05-31T19:13:59.840Z,99475.73
2023-05-31T19:16:26.528Z,99476.93
2023-05-31T19:18:53.389Z,99470.77
2023-05-31T19:21:20.204Z,99471.83
2023-05-31T19:23:46.873Z,99474.61
2023-05-31T19:26:18.209Z,99473.36
2023-05-31T19:28:48.466Z,99473.47
2023-05-31T19:31:15.660Z,99469.29
2023-05-31T19:33:42.364Z,99468.83
2023-05-31T19:36:09.361Z,99469.71
2023-05-31T19:38:36.727Z,99468.73
2023-05-31T19:41:03.654Z,99468.17
2023-05-31T19:43:30.646Z,99465.80
2023-05-31T19:45:59.553Z,99465.20
2023-05-31T19:48:26.466Z,99465.00
2023-05-31T19:50:53.699Z,99465.09
2023-05-31T19:53:20.718Z,99468.58
2023-05-31T19:55:47.333Z,99469.77
2023-05-31T19:58:14.253Z,99469.10
2023-05-31T20:00:41.647Z,99468.16
2023-05-31T20:03:08.510Z,99472.16
2023-05-31T20:05:35.198Z,99470.31
2023-05-31T20:08:01.760Z,99466.67
2023-05-31T20:10:28.584Z,99467.30
2023-05-31T20:12:55.954Z,99468.45
2023-05-31T20:15:22.791Z,99468.92
2023-05-31T20:17:50.441Z,99475.55
2023-05-31T20:20:17.594Z,99478.52
2023-05-31T20:22:44.442Z,99473.53
2023-05-31T20:25:11.554Z,99474.16
2023-05-31T20:27:38.626Z,99473.66
2023-05-31T20:30:06.462Z,99473.79
2023-05-31T20:32:33.478Z,99469.86
2023-05-31T20:35:01.382Z,99467.35
2023-05-31T20:37:28.816Z,99467.15
2023-05-31T20:39:55.477Z,99462.39
2023-05-31T20:42:22.145Z,99463.29
2023-05-31T20:44:50.050Z,99460.77
2023-05-31T20:47:16.942Z,99458.77
2023-05-31T20:49:44.241Z,99460.08
2023-05-31T20:52:11.332Z,99458.34
2023-05-31T20:54:38.255Z,99461.29
2023-05-31T20:57:06.778Z,99458.20
2023-05-31T20:59:35.807Z,99459.50
2023-05-31T21:02:03.345Z,99455.88
2023-05-31T21:04:31.468Z,99458.20
2023-05-31T21:06:59.113Z,99453.88
2023-05-31T21:09:27.843Z,99458.73
2023-05-31T21:11:54.960Z,99458.10
2023-05-31T21:14:21.750Z,99459.29
2023-05-31T21:16:48.869Z,99463.71
2023-05-31T21:19:15.598Z,99461.85
2023-05-31T21:21:43.031Z,99462.04
2023-05-31T21:24:10.319Z,99463.52
2023-05-31T21:26:37.252Z,99463.43
2023-05-31T21:29:04.131Z,99465.60
2023-05-31T21:31:32.987Z,99462.56
2023-05-31T21:34:00.180Z,99460.85
2023-05-31T21:36:27.583Z,99459.80
2023-05-31T21:38:54.277Z,99456.36
2023-05-31T21:41:21.241Z,99459.23
2023-05-31T21:43:47.863Z,99457.12
2023-05-31T21:46:14.618Z,99461.98
2023-05-31T21:48:42.907Z,99460.48
2023-05-31T21:51:09.541Z,99458.17
2023-05-31T21:53:36.240Z,99456.25
2023-05-31T21:56:03.240Z,99457.20
2023-05-31T21:58:32.513Z,99456.23
2023-05-31T22:00:59.609Z,99458.55
2023-05-31T22:03:26.513Z,99460.04
2023-05-31T22:05:53.903Z,99461.09
2023-05-31T22:08:21.075Z,99457.61
2023-05-31T22:10:48.049Z,99456.88
2023-05-31T22:13:15.104Z,99458.46
2023-05-31T22:15:50.490Z,99457.34
2023-05-31T22:18:20.767Z,99458.35
2023-05-31T22:20:55.650Z,99463.84
2023-05-31T22:23:23.322Z,99463.17
2023-05-31T22:25:50.370Z,99464.65
2023-05-31T22:28:18.719Z,99460.52
2023-05-31T22:30:45.590Z,99462.38
2023-05-31T22:33:12.500Z,99458.35
2023-05-31T22:35:39.467Z,99461.30
2023-05-31T22:38:06.239Z,99461.83
2023-05-31T22:40:34.326Z,99464.98
2023-05-31T22:43:02.136Z,99469.54
2023-05-31T22:45:28.874Z,99466.98
2023-05-31T22:47:57.857Z,99464.14
2023-05-31T22:50:25.183Z,99463.45
2023-05-31T22:52:53.864Z,99468.23
2023-05-31T22:55:20.944Z,99465.17
2023-05-31T22:57:47.664Z,99470.20
2023-05-31T23:00:14.743Z,99469.84
2023-05-31T23:02:42.086Z,99467.33
2023-05-31T23:05:09.602Z,99468.06
2023-05-31T23:07:37.350Z,99473.80
2023-05-31T23:10:05.090Z,99474.31
2023-05-31T23:12:33.856Z,99472.77
2023-05-31T23:15:08.518Z,99471.59
2023-05-31T23:17:37.524Z,99468.88
2023-05-31T23:20:12.518Z,99468.98
2023-05-31T23:22:40.879Z,99471.33
2023-05-31T23:25:08.163Z,99468.18
2023-05-31T23:27:38.361Z,99469.85
2023-05-31T23:30:10.141Z,99471.49
2023-05-31T23:32:37.354Z,99473.66
2023-05-31T23:35:04.828Z,99473.23
2023-05-31T23:37:34.495Z,99470.22
2023-05-31T23:40:01.786Z,99470.85
2023-05-31T23:42:28.741Z,99467.46
2023-05-31T23:44:55.594Z,99471.46
2023-05-31T23:47:22.323Z,99468.14
2023-05-31T23:49:50.622Z,99468.64
2023-05-31T23:52:17.411Z,99468.55
2023-05-31T23:54:44.100Z,99469.08
2023-05-31T23:57:11.723Z,99473.78
2023-05-31T23:59:38.562Z,99469.66
